sensor_id;sensor_type;location;lat;lon;timestamp;temperature;humidity
6738;DHT22;3406;49.902;8.596;2023-04-06T00:02:25;3.30;50.60
6738;DHT22;3406;49.902;8.596;2023-04-06T00:04:52;3.20;50.70
6738;DHT22;3406;49.902;8.596;2023-04-06T00:07:19;3.20;51.40
6738;DHT22;3406;49.902;8.596;2023-04-06T00:09:45;3.20;51.00
6738;DHT22;3406;49.902;8.596;2023-04-06T00:12:12;3.20;51.10
6738;DHT22;3406;49.902;8.596;2023-04-06T00:14:38;3.20;51.20
6738;DHT22;3406;49.902;8.596;2023-04-06T00:17:07;3.20;51.20
6738;DHT22;3406;49.902;8.596;2023-04-06T00:19:33;3.20;51.30
6738;DHT22;3406;49.902;8.596;2023-04-06T00:22:00;3.20;51.40
6738;DHT22;3406;49.902;8.596;2023-04-06T00:24:27;3.20;51.50
6738;DHT22;3406;49.902;8.596;2023-04-06T00:26:54;3.20;51.60
6738;DHT22;3406;49.902;8.596;2023-04-06T00:29:20;3.10;51.70
6738;DHT22;3406;49.902;8.596;2023-04-06T00:31:47;3.10;51.90
6738;DHT22;3406;49.902;8.596;2023-04-06T00:34:15;3.10;51.90
6738;DHT22;3406;49.902;8.596;2023-04-06T00:36:42;3.10;52.10
6738;DHT22;3406;49.902;8.596;2023-04-06T00:39:09;3.10;52.30
6738;DHT22;3406;49.902;8.596;2023-04-06T00:41:35;3.00;52.40
6738;DHT22;3406;49.902;8.596;2023-04-06T00:44:02;3.00;52.50
6738;DHT22;3406;49.902;8.596;2023-04-06T00:46:29;3.00;53.00
6738;DHT22;3406;49.902;8.596;2023-04-06T00:48:56;3.00;52.50
6738;DHT22;3406;49.902;8.596;2023-04-06T00:51:24;3.00;52.50
6738;DHT22;3406;49.902;8.596;2023-04-06T00:53:52;3.00;52.60
6738;DHT22;3406;49.902;8.596;2023-04-06T00:56:18;3.00;52.60
6738;DHT22;3406;49.902;8.596;2023-04-06T00:58:46;2.90;52.70
6738;DHT22;3406;49.902;8.596;2023-04-06T01:01:13;2.90;52.80
6738;DHT22;3406;49.902;8.596;2023-04-06T01:03:39;2.80;52.90
6738;DHT22;3406;49.902;8.596;2023-04-06T01:06:07;2.80;52.90
6738;DHT22;3406;49.902;8.596;2023-04-06T01:08:35;2.80;53.00
6738;DHT22;3406;49.902;8.596;2023-04-06T01:11:02;2.70;53.00
6738;DHT22;3406;49.902;8.596;2023-04-06T01:13:29;2.70;53.10
6738;DHT22;3406;49.902;8.596;2023-04-06T01:15:56;2.70;53.20
6738;DHT22;3406;49.902;8.596;2023-04-06T01:18:25;2.70;53.30
6738;DHT22;3406;49.902;8.596;2023-04-06T01:20:52;2.70;53.30
6738;DHT22;3406;49.902;8.596;2023-04-06T01:23:21;2.70;53.40
6738;DHT22;3406;49.902;8.596;2023-04-06T01:25:47;2.60;53.40
6738;DHT22;3406;49.902;8.596;2023-04-06T01:28:14;2.60;53.50
6738;DHT22;3406;49.902;8.596;2023-04-06T01:30:40;2.60;53.60
6738;DHT22;3406;49.902;8.596;2023-04-06T01:33:07;2.50;53.70
6738;DHT22;3406;49.902;8.596;2023-04-06T01:35:34;2.50;53.70
6738;DHT22;3406;49.902;8.596;2023-04-06T01:38:01;2.50;53.70
6738;DHT22;3406;49.902;8.596;2023-04-06T01:40:29;2.50;53.80
6738;DHT22;3406;49.902;8.596;2023-04-06T01:42:56;2.50;53.90
6738;DHT22;3406;49.902;8.596;2023-04-06T01:45:22;2.50;53.90
6738;DHT22;3406;49.902;8.596;2023-04-06T01:47:49;2.50;54.00
6738;DHT22;3406;49.902;8.596;2023-04-06T01:50:16;2.50;54.00
6738;DHT22;3406;49.902;8.596;2023-04-06T01:52:43;2.50;54.10
6738;DHT22;3406;49.902;8.596;2023-04-06T01:55:10;2.50;54.20
6738;DHT22;3406;49.902;8.596;2023-04-06T01:57:37;2.40;54.30
6738;DHT22;3406;49.902;8.596;2023-04-06T02:00:05;2.30;54.40
6738;DHT22;3406;49.902;8.596;2023-04-06T02:02:32;2.30;54.60
6738;DHT22;3406;49.902;8.596;2023-04-06T02:04:59;2.30;54.70
6738;DHT22;3406;49.902;8.596;2023-04-06T02:07:26;2.30;54.80
6738;DHT22;3406;49.902;8.596;2023-04-06T02:09:54;2.20;54.80
6738;DHT22;3406;49.902;8.596;2023-04-06T02:12:21;2.20;54.90
6738;DHT22;3406;49.902;8.596;2023-04-06T02:14:50;2.20;55.00
6738;DHT22;3406;49.902;8.596;2023-04-06T02:17:17;2.20;55.00
6738;DHT22;3406;49.902;8.596;2023-04-06T02:19:44;2.20;55.10
6738;DHT22;3406;49.902;8.596;2023-04-06T02:22:10;2.20;55.10
6738;DHT22;3406;49.902;8.596;2023-04-06T02:24:37;2.20;55.20
6738;DHT22;3406;49.902;8.596;2023-04-06T02:27:04;2.10;55.10
6738;DHT22;3406;49.902;8.596;2023-04-06T02:29:31;2.10;55.20
6738;DHT22;3406;49.902;8.596;2023-04-06T02:31:59;2.10;55.30
6738;DHT22;3406;49.902;8.596;2023-04-06T02:34:25;2.00;55.30
6738;DHT22;3406;49.902;8.596;2023-04-06T02:36:52;1.90;55.30
6738;DHT22;3406;49.902;8.596;2023-04-06T02:39:19;1.90;55.40
6738;DHT22;3406;49.902;8.596;2023-04-06T02:41:46;1.90;55.50
6738;DHT22;3406;49.902;8.596;2023-04-06T02:44:12;1.80;55.50
6738;DHT22;3406;49.902;8.596;2023-04-06T02:46:39;1.80;55.50
6738;DHT22;3406;49.902;8.596;2023-04-06T02:49:07;1.70;55.50
6738;DHT22;3406;49.902;8.596;2023-04-06T02:51:34;1.70;55.50
6738;DHT22;3406;49.902;8.596;2023-04-06T02:54:01;1.70;55.60
6738;DHT22;3406;49.902;8.596;2023-04-06T02:56:27;1.60;55.60
6738;DHT22;3406;49.902;8.596;2023-04-06T02:58:54;1.60;55.70
6738;DHT22;3406;49.902;8.596;2023-04-06T03:01:20;1.50;55.80
6738;DHT22;3406;49.902;8.596;2023-04-06T03:03:47;1.50;56.00
6738;DHT22;3406;49.902;8.596;2023-04-06T03:06:15;1.50;56.00
6738;DHT22;3406;49.902;8.596;2023-04-06T03:08:42;1.50;56.10
6738;DHT22;3406;49.902;8.596;2023-04-06T03:11:08;1.50;56.10
6738;DHT22;3406;49.902;8.596;2023-04-06T03:13:36;1.50;56.20
6738;DHT22;3406;49.902;8.596;2023-04-06T03:16:04;1.50;56.30
6738;DHT22;3406;49.902;8.596;2023-04-06T03:18:31;1.50;56.30
6738;DHT22;3406;49.902;8.596;2023-04-06T03:20:58;1.50;56.30
6738;DHT22;3406;49.902;8.596;2023-04-06T03:23:26;1.50;56.40
6738;DHT22;3406;49.902;8.596;2023-04-06T03:25:53;1.40;56.40
6738;DHT22;3406;49.902;8.596;2023-04-06T03:28:20;1.40;56.50
6738;DHT22;3406;49.902;8.596;2023-04-06T03:30:46;1.40;56.50
6738;DHT22;3406;49.902;8.596;2023-04-06T03:33:13;1.40;56.50
6738;DHT22;3406;49.902;8.596;2023-04-06T03:35:40;1.40;56.60
6738;DHT22;3406;49.902;8.596;2023-04-06T03:38:06;1.40;56.70
6738;DHT22;3406;49.902;8.596;2023-04-06T03:40:34;1.40;56.70
6738;DHT22;3406;49.902;8.596;2023-04-06T03:43:01;1.30;56.80
6738;DHT22;3406;49.902;8.596;2023-04-06T03:45:28;1.30;56.90
6738;DHT22;3406;49.902;8.596;2023-04-06T03:47:54;1.30;56.90
6738;DHT22;3406;49.902;8.596;2023-04-06T03:50:21;1.20;57.00
6738;DHT22;3406;49.902;8.596;2023-04-06T03:52:48;1.20;57.00
6738;DHT22;3406;49.902;8.596;2023-04-06T03:55:15;1.30;57.20
6738;DHT22;3406;49.902;8.596;2023-04-06T03:57:43;1.30;57.20
6738;DHT22;3406;49.902;8.596;2023-04-06T04:00:10;1.30;57.20
6738;DHT22;3406;49.902;8.596;2023-04-06T04:02:37;1.30;57.20
6738;DHT22;3406;49.902;8.596;2023-04-06T04:05:04;1.30;57.20
6738;DHT22;3406;49.902;8.596;2023-04-06T04:07:31;1.30;57.20
6738;DHT22;3406;49.902;8.596;2023-04-06T04:09:58;1.30;57.20
6738;DHT22;3406;49.902;8.596;2023-04-06T04:12:25;1.30;57.20
6738;DHT22;3406;49.902;8.596;2023-04-06T04:14:52;1.30;57.30
6738;DHT22;3406;49.902;8.596;2023-04-06T04:17:19;1.30;57.30
6738;DHT22;3406;49.902;8.596;2023-04-06T04:19:46;1.30;57.40
6738;DHT22;3406;49.902;8.596;2023-04-06T04:22:12;1.30;57.50
6738;DHT22;3406;49.902;8.596;2023-04-06T04:24:39;1.30;57.50
6738;DHT22;3406;49.902;8.596;2023-04-06T04:27:06;1.30;57.50
6738;DHT22;3406;49.902;8.596;2023-04-06T04:29:32;1.30;57.60
6738;DHT22;3406;49.902;8.596;2023-04-06T04:32:01;1.30;57.70
6738;DHT22;3406;49.902;8.596;2023-04-06T04:34:28;1.30;57.70
6738;DHT22;3406;49.902;8.596;2023-04-06T04:36:55;1.20;57.70
6738;DHT22;3406;49.902;8.596;2023-04-06T04:39:21;1.20;57.80
6738;DHT22;3406;49.902;8.596;2023-04-06T04:41:48;1.10;57.90
6738;DHT22;3406;49.902;8.596;2023-04-06T04:44:15;1.10;57.90
6738;DHT22;3406;49.902;8.596;2023-04-06T04:46:41;1.10;58.00
6738;DHT22;3406;49.902;8.596;2023-04-06T04:49:09;1.10;58.00
6738;DHT22;3406;49.902;8.596;2023-04-06T04:51:36;1.10;58.00
6738;DHT22;3406;49.902;8.596;2023-04-06T04:54:03;1.10;58.10
6738;DHT22;3406;49.902;8.596;2023-04-06T04:56:29;1.10;58.10
6738;DHT22;3406;49.902;8.596;2023-04-06T04:58:56;1.00;58.10
6738;DHT22;3406;49.902;8.596;2023-04-06T05:01:22;1.00;58.10
6738;DHT22;3406;49.902;8.596;2023-04-06T05:03:49;1.00;58.20
6738;DHT22;3406;49.902;8.596;2023-04-06T05:06:17;1.00;58.40
6738;DHT22;3406;49.902;8.596;2023-04-06T05:08:44;1.00;58.40
6738;DHT22;3406;49.902;8.596;2023-04-06T05:11:11;1.00;58.40
6738;DHT22;3406;49.902;8.596;2023-04-06T05:13:38;1.00;58.40
6738;DHT22;3406;49.902;8.596;2023-04-06T05:16:05;1.00;58.30
6738;DHT22;3406;49.902;8.596;2023-04-06T05:18:32;1.00;58.40
6738;DHT22;3406;49.902;8.596;2023-04-06T05:20:58;1.00;58.40
6738;DHT22;3406;49.902;8.596;2023-04-06T05:23:26;1.00;58.40
6738;DHT22;3406;49.902;8.596;2023-04-06T05:25:53;1.00;58.50
6738;DHT22;3406;49.902;8.596;2023-04-06T05:28:20;1.00;59.00
6738;DHT22;3406;49.902;8.596;2023-04-06T05:30:46;1.10;58.60
6738;DHT22;3406;49.902;8.596;2023-04-06T05:33:13;1.10;59.10
6738;DHT22;3406;49.902;8.596;2023-04-06T05:35:39;1.20;58.60
6738;DHT22;3406;49.902;8.596;2023-04-06T05:38:08;1.20;58.50
6738;DHT22;3406;49.902;8.596;2023-04-06T05:40:36;1.30;58.60
6738;DHT22;3406;49.902;8.596;2023-04-06T05:43:03;1.30;58.50
6738;DHT22;3406;49.902;8.596;2023-04-06T05:45:30;1.40;58.60
6738;DHT22;3406;49.902;8.596;2023-04-06T05:47:57;1.40;59.10
6738;DHT22;3406;49.902;8.596;2023-04-06T05:50:23;1.40;58.70
6738;DHT22;3406;49.902;8.596;2023-04-06T05:52:50;1.40;58.70
6738;DHT22;3406;49.902;8.596;2023-04-06T05:55:17;1.50;58.80
6738;DHT22;3406;49.902;8.596;2023-04-06T05:57:45;1.60;59.30
6738;DHT22;3406;49.902;8.596;2023-04-06T06:00:13;1.70;58.80
6738;DHT22;3406;49.902;8.596;2023-04-06T06:02:39;1.80;58.80
6738;DHT22;3406;49.902;8.596;2023-04-06T06:05:08;1.90;58.70
6738;DHT22;3406;49.902;8.596;2023-04-06T06:07:35;2.00;58.60
6738;DHT22;3406;49.902;8.596;2023-04-06T06:10:01;2.20;58.70
6738;DHT22;3406;49.902;8.596;2023-04-06T06:12:28;2.30;58.60
6738;DHT22;3406;49.902;8.596;2023-04-06T06:14:56;2.40;58.50
6738;DHT22;3406;49.902;8.596;2023-04-06T06:17:23;2.60;58.50
6738;DHT22;3406;49.902;8.596;2023-04-06T06:19:49;2.80;58.50
6738;DHT22;3406;49.902;8.596;2023-04-06T06:22:16;2.90;58.40
6738;DHT22;3406;49.902;8.596;2023-04-06T06:24:43;3.00;58.30
6738;DHT22;3406;49.902;8.596;2023-04-06T06:27:09;3.10;58.30
6738;DHT22;3406;49.902;8.596;2023-04-06T06:29:36;3.20;58.30
6738;DHT22;3406;49.902;8.596;2023-04-06T06:32:04;3.40;58.30
6738;DHT22;3406;49.902;8.596;2023-04-06T06:34:31;3.50;58.30
6738;DHT22;3406;49.902;8.596;2023-04-06T06:36:57;3.70;58.30
6738;DHT22;3406;49.902;8.596;2023-04-06T06:39:25;3.80;58.10
6738;DHT22;3406;49.902;8.596;2023-04-06T06:41:51;3.90;58.00
6738;DHT22;3406;49.902;8.596;2023-04-06T06:44:19;4.00;58.00
6738;DHT22;3406;49.902;8.596;2023-04-06T06:46:47;4.10;58.00
6738;DHT22;3406;49.902;8.596;2023-04-06T06:49:14;4.20;57.90
6738;DHT22;3406;49.902;8.596;2023-04-06T06:51:41;4.20;57.80
6738;DHT22;3406;49.902;8.596;2023-04-06T06:54:08;4.20;57.70
6738;DHT22;3406;49.902;8.596;2023-04-06T06:56:34;4.30;57.70
6738;DHT22;3406;49.902;8.596;2023-04-06T06:59:03;4.40;57.70
6738;DHT22;3406;49.902;8.596;2023-04-06T07:01:31;4.50;57.70
6738;DHT22;3406;49.902;8.596;2023-04-06T07:03:58;4.50;57.60
6738;DHT22;3406;49.902;8.596;2023-04-06T07:06:26;4.60;57.50
6738;DHT22;3406;49.902;8.596;2023-04-06T07:08:53;4.70;57.50
6738;DHT22;3406;49.902;8.596;2023-04-06T07:11:20;4.80;57.50
6738;DHT22;3406;49.902;8.596;2023-04-06T07:13:46;4.80;57.40
6738;DHT22;3406;49.902;8.596;2023-04-06T07:16:13;4.90;57.40
6738;DHT22;3406;49.902;8.596;2023-04-06T07:18:40;5.00;57.30
6738;DHT22;3406;49.902;8.596;2023-04-06T07:21:06;5.10;57.30
6738;DHT22;3406;49.902;8.596;2023-04-06T07:23:34;5.30;57.30
6738;DHT22;3406;49.902;8.596;2023-04-06T07:26:01;5.30;57.00
6738;DHT22;3406;49.902;8.596;2023-04-06T07:28:27;5.40;57.00
6738;DHT22;3406;49.902;8.596;2023-04-06T07:30:54;5.50;57.00
6738;DHT22;3406;49.902;8.596;2023-04-06T07:33:21;5.50;56.80
6738;DHT22;3406;49.902;8.596;2023-04-06T07:35:47;5.70;56.90
6738;DHT22;3406;49.902;8.596;2023-04-06T07:38:14;5.80;56.70
6738;DHT22;3406;49.902;8.596;2023-04-06T07:40:42;5.90;56.60
6738;DHT22;3406;49.902;8.596;2023-04-06T07:43:08;6.00;56.40
6738;DHT22;3406;49.902;8.596;2023-04-06T07:45:35;6.10;56.20
6738;DHT22;3406;49.902;8.596;2023-04-06T07:48:02;6.30;56.00
6738;DHT22;3406;49.902;8.596;2023-04-06T07:50:29;6.40;55.80
6738;DHT22;3406;49.902;8.596;2023-04-06T07:52:55;6.50;55.70
6738;DHT22;3406;49.902;8.596;2023-04-06T07:55:23;6.60;55.50
6738;DHT22;3406;49.902;8.596;2023-04-06T07:57:51;6.60;55.20
6738;DHT22;3406;49.902;8.596;2023-04-06T08:00:18;6.70;55.10
6738;DHT22;3406;49.902;8.596;2023-04-06T08:02:45;6.70;55.00
6738;DHT22;3406;49.902;8.596;2023-04-06T08:05:11;6.80;55.40
6738;DHT22;3406;49.902;8.596;2023-04-06T08:07:38;6.80;54.70
6738;DHT22;3406;49.902;8.596;2023-04-06T08:10:05;6.90;54.80
6738;DHT22;3406;49.902;8.596;2023-04-06T08:12:32;7.00;54.70
6738;DHT22;3406;49.902;8.596;2023-04-06T08:15:01;7.10;54.60
6738;DHT22;3406;49.902;8.596;2023-04-06T08:17:29;7.20;54.50
6738;DHT22;3406;49.902;8.596;2023-04-06T08:19:56;7.30;54.40
6738;DHT22;3406;49.902;8.596;2023-04-06T08:22:23;7.30;54.20
6738;DHT22;3406;49.902;8.596;2023-04-06T08:24:50;7.40;54.00
6738;DHT22;3406;49.902;8.596;2023-04-06T08:27:16;7.50;53.80
6738;DHT22;3406;49.902;8.596;2023-04-06T08:29:43;7.60;53.80
6738;DHT22;3406;49.902;8.596;2023-04-06T08:32:11;7.70;53.60
6738;DHT22;3406;49.902;8.596;2023-04-06T08:34:38;7.80;53.40
6738;DHT22;3406;49.902;8.596;2023-04-06T08:37:04;8.00;53.20
6738;DHT22;3406;49.902;8.596;2023-04-06T08:39:31;8.10;53.00
6738;DHT22;3406;49.902;8.596;2023-04-06T08:41:59;8.30;52.80
6738;DHT22;3406;49.902;8.596;2023-04-06T08:44:28;8.40;52.70
6738;DHT22;3406;49.902;8.596;2023-04-06T08:46:55;8.50;52.40
6738;DHT22;3406;49.902;8.596;2023-04-06T08:49:23;8.60;52.20
6738;DHT22;3406;49.902;8.596;2023-04-06T08:52:05;8.70;51.50
6738;DHT22;3406;49.902;8.596;2023-04-06T08:54:32;8.80;52.10
6738;DHT22;3406;49.902;8.596;2023-04-06T08:56:59;9.10;51.80
6738;DHT22;3406;49.902;8.596;2023-04-06T08:59:26;9.30;51.30
6738;DHT22;3406;49.902;8.596;2023-04-06T09:01:54;9.50;51.10
6738;DHT22;3406;49.902;8.596;2023-04-06T09:04:21;9.50;50.50
6738;DHT22;3406;49.902;8.596;2023-04-06T09:06:48;9.50;50.00
6738;DHT22;3406;49.902;8.596;2023-04-06T09:09:16;9.60;49.90
6738;DHT22;3406;49.902;8.596;2023-04-06T09:11:47;9.60;49.60
6738;DHT22;3406;49.902;8.596;2023-04-06T09:14:15;9.70;49.40
6738;DHT22;3406;49.902;8.596;2023-04-06T09:16:44;9.70;49.10
6738;DHT22;3406;49.902;8.596;2023-04-06T09:19:11;9.80;49.20
6738;DHT22;3406;49.902;8.596;2023-04-06T09:21:38;9.90;49.10
6738;DHT22;3406;49.902;8.596;2023-04-06T09:24:07;10.00;48.00
6738;DHT22;3406;49.902;8.596;2023-04-06T09:26:45;10.10;47.90
6738;DHT22;3406;49.902;8.596;2023-04-06T09:29:22;10.10;47.60
6738;DHT22;3406;49.902;8.596;2023-04-06T09:31:49;10.20;47.40
6738;DHT22;3406;49.902;8.596;2023-04-06T09:34:21;10.30;47.30
6738;DHT22;3406;49.902;8.596;2023-04-06T09:36:48;10.30;47.10
6738;DHT22;3406;49.902;8.596;2023-04-06T09:39:15;10.30;47.10
6738;DHT22;3406;49.902;8.596;2023-04-06T09:41:41;10.30;47.20
6738;DHT22;3406;49.902;8.596;2023-04-06T09:44:10;10.40;47.10
6738;DHT22;3406;49.902;8.596;2023-04-06T09:46:39;10.60;47.20
6738;DHT22;3406;49.902;8.596;2023-04-06T09:49:06;10.70;47.00
6738;DHT22;3406;49.902;8.596;2023-04-06T09:51:44;10.80;47.00
6738;DHT22;3406;49.902;8.596;2023-04-06T09:54:12;10.80;47.00
6738;DHT22;3406;49.902;8.596;2023-04-06T09:56:45;10.90;47.00
6738;DHT22;3406;49.902;8.596;2023-04-06T09:59:18;11.10;47.10
6738;DHT22;3406;49.902;8.596;2023-04-06T10:01:49;11.20;46.90
6738;DHT22;3406;49.902;8.596;2023-04-06T10:04:25;11.20;46.60
6738;DHT22;3406;49.902;8.596;2023-04-06T10:06:53;11.30;46.50
6738;DHT22;3406;49.902;8.596;2023-04-06T10:09:24;11.30;46.50
6738;DHT22;3406;49.902;8.596;2023-04-06T10:11:52;11.40;46.50
6738;DHT22;3406;49.902;8.596;2023-04-06T10:14:21;11.50;46.40
6738;DHT22;3406;49.902;8.596;2023-04-06T10:16:48;11.60;46.40
6738;DHT22;3406;49.902;8.596;2023-04-06T10:19:19;11.70;46.20
6738;DHT22;3406;49.902;8.596;2023-04-06T10:21:50;11.80;46.10
6738;DHT22;3406;49.902;8.596;2023-04-06T10:24:19;11.90;45.70
6738;DHT22;3406;49.902;8.596;2023-04-06T10:26:57;12.00;45.30
6738;DHT22;3406;49.902;8.596;2023-04-06T10:29:25;12.10;45.20
6738;DHT22;3406;49.902;8.596;2023-04-06T10:31:51;12.20;45.20
6738;DHT22;3406;49.902;8.596;2023-04-06T10:34:18;12.30;44.60
6738;DHT22;3406;49.902;8.596;2023-04-06T10:36:44;12.40;43.70
6738;DHT22;3406;49.902;8.596;2023-04-06T10:39:11;12.40;43.60
6738;DHT22;3406;49.902;8.596;2023-04-06T10:41:41;12.50;43.70
6738;DHT22;3406;49.902;8.596;2023-04-06T10:44:16;12.60;43.60
6738;DHT22;3406;49.902;8.596;2023-04-06T10:46:52;12.80;43.70
6738;DHT22;3406;49.902;8.596;2023-04-06T10:49:19;12.80;43.50
6738;DHT22;3406;49.902;8.596;2023-04-06T10:51:51;12.90;43.60
6738;DHT22;3406;49.902;8.596;2023-04-06T10:54:18;13.00;43.70
6738;DHT22;3406;49.902;8.596;2023-04-06T10:56:45;13.20;43.60
6738;DHT22;3406;49.902;8.596;2023-04-06T10:59:12;13.30;43.10
6738;DHT22;3406;49.902;8.596;2023-04-06T11:01:45;13.30;42.60
6738;DHT22;3406;49.902;8.596;2023-04-06T11:04:15;13.30;42.00
6738;DHT22;3406;49.902;8.596;2023-04-06T11:06:46;13.30;41.80
6738;DHT22;3406;49.902;8.596;2023-04-06T11:09:23;13.40;41.60
6738;DHT22;3406;49.902;8.596;2023-04-06T11:11:50;13.40;41.20
6738;DHT22;3406;49.902;8.596;2023-04-06T11:14:17;13.50;41.10
6738;DHT22;3406;49.902;8.596;2023-04-06T11:16:47;13.70;41.30
6738;DHT22;3406;49.902;8.596;2023-04-06T11:19:15;13.80;40.90
6738;DHT22;3406;49.902;8.596;2023-04-06T11:21:43;13.80;40.80
6738;DHT22;3406;49.902;8.596;2023-04-06T11:24:13;13.90;40.60
6738;DHT22;3406;49.902;8.596;2023-04-06T11:26:42;13.90;40.40
6738;DHT22;3406;49.902;8.596;2023-04-06T11:29:09;14.20;39.70
6738;DHT22;3406;49.902;8.596;2023-04-06T11:31:40;14.30;39.00
6738;DHT22;3406;49.902;8.596;2023-04-06T11:34:13;14.50;38.60
6738;DHT22;3406;49.902;8.596;2023-04-06T11:36:40;14.50;38.10
6738;DHT22;3406;49.902;8.596;2023-04-06T11:39:08;14.60;38.10
6738;DHT22;3406;49.902;8.596;2023-04-06T11:41:35;14.70;38.10
6738;DHT22;3406;49.902;8.596;2023-04-06T11:44:02;14.70;37.70
6738;DHT22;3406;49.902;8.596;2023-04-06T11:46:29;14.80;37.70
6738;DHT22;3406;49.902;8.596;2023-04-06T11:48:58;15.00;37.60
6738;DHT22;3406;49.902;8.596;2023-04-06T11:51:27;15.10;37.20
6738;DHT22;3406;49.902;8.596;2023-04-06T11:53:53;15.10;36.90
6738;DHT22;3406;49.902;8.596;2023-04-06T11:56:25;15.00;36.40
6738;DHT22;3406;49.902;8.596;2023-04-06T11:58:52;15.00;36.60
6738;DHT22;3406;49.902;8.596;2023-04-06T12:01:19;15.10;36.60
6738;DHT22;3406;49.902;8.596;2023-04-06T12:03:45;15.10;36.60
6738;DHT22;3406;49.902;8.596;2023-04-06T12:06:13;15.30;36.80
6738;DHT22;3406;49.902;8.596;2023-04-06T12:08:41;15.30;36.30
6738;DHT22;3406;49.902;8.596;2023-04-06T12:11:07;15.30;36.20
6738;DHT22;3406;49.902;8.596;2023-04-06T12:13:34;15.30;36.30
6738;DHT22;3406;49.902;8.596;2023-04-06T12:16:01;15.40;36.10
6738;DHT22;3406;49.902;8.596;2023-04-06T12:18:27;15.40;36.00
6738;DHT22;3406;49.902;8.596;2023-04-06T12:20:54;15.40;35.70
6738;DHT22;3406;49.902;8.596;2023-04-06T12:23:21;15.30;35.70
6738;DHT22;3406;49.902;8.596;2023-04-06T12:25:49;15.30;35.70
6738;DHT22;3406;49.902;8.596;2023-04-06T12:28:16;15.30;35.80
6738;DHT22;3406;49.902;8.596;2023-04-06T12:30:43;15.40;35.90
6738;DHT22;3406;49.902;8.596;2023-04-06T12:33:09;15.40;35.40
6738;DHT22;3406;49.902;8.596;2023-04-06T12:35:36;15.20;34.90
6738;DHT22;3406;49.902;8.596;2023-04-06T12:38:04;15.20;35.10
6738;DHT22;3406;49.902;8.596;2023-04-06T12:40:30;15.10;35.10
6738;DHT22;3406;49.902;8.596;2023-04-06T12:42:58;15.20;35.40
6738;DHT22;3406;49.902;8.596;2023-04-06T12:45:25;15.20;35.00
6738;DHT22;3406;49.902;8.596;2023-04-06T12:47:51;15.20;35.10
6738;DHT22;3406;49.902;8.596;2023-04-06T12:50:18;15.30;35.20
6738;DHT22;3406;49.902;8.596;2023-04-06T12:52:45;15.40;35.30
6738;DHT22;3406;49.902;8.596;2023-04-06T12:55:11;15.50;35.10
6738;DHT22;3406;49.902;8.596;2023-04-06T12:57:38;15.50;34.20
6738;DHT22;3406;49.902;8.596;2023-04-06T13:00:08;15.40;33.90
6738;DHT22;3406;49.902;8.596;2023-04-06T13:02:34;15.40;34.00
6738;DHT22;3406;49.902;8.596;2023-04-06T13:05:01;15.40;34.10
6738;DHT22;3406;49.902;8.596;2023-04-06T13:07:28;15.40;34.20
6738;DHT22;3406;49.902;8.596;2023-04-06T13:09:54;15.50;35.00
6738;DHT22;3406;49.902;8.596;2023-04-06T13:12:21;15.60;34.60
6738;DHT22;3406;49.902;8.596;2023-04-06T13:14:48;15.70;34.50
6738;DHT22;3406;49.902;8.596;2023-04-06T13:17:19;15.70;34.40
6738;DHT22;3406;49.902;8.596;2023-04-06T13:19:46;15.60;34.10
6738;DHT22;3406;49.902;8.596;2023-04-06T13:22:13;15.50;34.00
6738;DHT22;3406;49.902;8.596;2023-04-06T13:24:40;15.40;33.80
6738;DHT22;3406;49.902;8.596;2023-04-06T13:27:08;15.40;34.00
6738;DHT22;3406;49.902;8.596;2023-04-06T13:29:34;15.50;34.00
6738;DHT22;3406;49.902;8.596;2023-04-06T13:32:02;15.50;34.00
6738;DHT22;3406;49.902;8.596;2023-04-06T13:34:30;15.70;34.80
6738;DHT22;3406;49.902;8.596;2023-04-06T13:36:57;15.80;34.00
6738;DHT22;3406;49.902;8.596;2023-04-06T13:39:24;15.90;34.10
6738;DHT22;3406;49.902;8.596;2023-04-06T13:41:53;16.10;34.30
6738;DHT22;3406;49.902;8.596;2023-04-06T13:44:20;16.20;33.90
6738;DHT22;3406;49.902;8.596;2023-04-06T13:46:47;16.10;33.60
6738;DHT22;3406;49.902;8.596;2023-04-06T13:49:14;16.00;33.70
6738;DHT22;3406;49.902;8.596;2023-04-06T13:51:42;15.90;33.70
6738;DHT22;3406;49.902;8.596;2023-04-06T13:54:08;15.90;33.80
6738;DHT22;3406;49.902;8.596;2023-04-06T13:56:35;15.80;33.80
6738;DHT22;3406;49.902;8.596;2023-04-06T13:59:03;15.90;34.10
6738;DHT22;3406;49.902;8.596;2023-04-06T14:01:29;15.90;33.70
6738;DHT22;3406;49.902;8.596;2023-04-06T14:03:56;15.90;33.70
6738;DHT22;3406;49.902;8.596;2023-04-06T14:06:22;15.90;33.70
6738;DHT22;3406;49.902;8.596;2023-04-06T14:08:51;15.80;33.50
6738;DHT22;3406;49.902;8.596;2023-04-06T14:11:18;15.70;33.40
6738;DHT22;3406;49.902;8.596;2023-04-06T14:13:44;15.60;33.30
6738;DHT22;3406;49.902;8.596;2023-04-06T14:16:11;15.60;33.40
6738;DHT22;3406;49.902;8.596;2023-04-06T14:18:38;15.60;33.60
6738;DHT22;3406;49.902;8.596;2023-04-06T14:21:05;15.60;33.60
6738;DHT22;3406;49.902;8.596;2023-04-06T14:23:31;15.60;33.60
6738;DHT22;3406;49.902;8.596;2023-04-06T14:26:03;15.60;33.70
6738;DHT22;3406;49.902;8.596;2023-04-06T14:28:31;15.60;33.80
6738;DHT22;3406;49.902;8.596;2023-04-06T14:30:58;15.70;33.90
6738;DHT22;3406;49.902;8.596;2023-04-06T14:33:25;15.70;33.80
6738;DHT22;3406;49.902;8.596;2023-04-06T14:35:52;15.70;33.90
6738;DHT22;3406;49.902;8.596;2023-04-06T14:38:18;15.70;34.40
6738;DHT22;3406;49.902;8.596;2023-04-06T14:40:45;15.70;33.70
6738;DHT22;3406;49.902;8.596;2023-04-06T14:43:13;15.60;33.70
6738;DHT22;3406;49.902;8.596;2023-04-06T14:45:40;15.50;33.60
6738;DHT22;3406;49.902;8.596;2023-04-06T14:48:07;15.50;33.80
6738;DHT22;3406;49.902;8.596;2023-04-06T14:50:37;15.60;33.90
6738;DHT22;3406;49.902;8.596;2023-04-06T14:53:04;15.60;33.80
6738;DHT22;3406;49.902;8.596;2023-04-06T14:55:30;15.70;33.90
6738;DHT22;3406;49.902;8.596;2023-04-06T14:57:57;15.70;33.70
6738;DHT22;3406;49.902;8.596;2023-04-06T15:00:25;15.60;33.50
6738;DHT22;3406;49.902;8.596;2023-04-06T15:02:52;15.60;33.60
6738;DHT22;3406;49.902;8.596;2023-04-06T15:05:18;15.50;33.60
6738;DHT22;3406;49.902;8.596;2023-04-06T15:07:45;15.50;33.70
6738;DHT22;3406;49.902;8.596;2023-04-06T15:10:11;15.50;33.80
6738;DHT22;3406;49.902;8.596;2023-04-06T15:12:38;15.50;33.60
6738;DHT22;3406;49.902;8.596;2023-04-06T15:15:06;15.40;34.10
6738;DHT22;3406;49.902;8.596;2023-04-06T15:17:34;15.40;33.60
6738;DHT22;3406;49.902;8.596;2023-04-06T15:20:00;15.40;33.60
6738;DHT22;3406;49.902;8.596;2023-04-06T15:22:27;15.30;33.30
6738;DHT22;3406;49.902;8.596;2023-04-06T15:24:54;15.20;33.20
6738;DHT22;3406;49.902;8.596;2023-04-06T15:27:21;15.10;33.20
6738;DHT22;3406;49.902;8.596;2023-04-06T15:29:47;15.20;33.50
6738;DHT22;3406;49.902;8.596;2023-04-06T15:32:14;15.20;33.50
6738;DHT22;3406;49.902;8.596;2023-04-06T15:34:42;15.20;33.60
6738;DHT22;3406;49.902;8.596;2023-04-06T15:37:09;15.20;33.60
6738;DHT22;3406;49.902;8.596;2023-04-06T15:39:35;15.20;33.80
6738;DHT22;3406;49.902;8.596;2023-04-06T15:42:02;15.10;33.70
6738;DHT22;3406;49.902;8.596;2023-04-06T15:44:29;15.10;33.80
6738;DHT22;3406;49.902;8.596;2023-04-06T15:46:56;15.10;33.80
6738;DHT22;3406;49.902;8.596;2023-04-06T15:49:22;15.00;33.80
6738;DHT22;3406;49.902;8.596;2023-04-06T15:51:51;15.00;33.80
6738;DHT22;3406;49.902;8.596;2023-04-06T15:54:18;14.80;33.50
6738;DHT22;3406;49.902;8.596;2023-04-06T15:56:45;14.70;33.30
6738;DHT22;3406;49.902;8.596;2023-04-06T15:59:12;14.60;33.40
6738;DHT22;3406;49.902;8.596;2023-04-06T16:01:39;14.40;33.50
6738;DHT22;3406;49.902;8.596;2023-04-06T16:04:07;14.30;33.60
6738;DHT22;3406;49.902;8.596;2023-04-06T16:06:35;14.20;33.90
6738;DHT22;3406;49.902;8.596;2023-04-06T16:09:03;14.20;34.20
6738;DHT22;3406;49.902;8.596;2023-04-06T16:11:30;14.10;34.40
6738;DHT22;3406;49.902;8.596;2023-04-06T16:13:57;14.10;34.60